Weather History for KSEZ - January, 2014

Change the Weather History Date:

Monday, January 6, 2014

  Actual Average Record
Temperature  
Mean Temperature 46 °F -  
Max Temperature 59 °F 52 °F 68 °F (2015)
Min Temperature 33 °F 29 °F 33 °F (2014)
Degree Days  
Heating Degree Days 19    
Moisture  
Dew Point 3 °F    
Average Humidity 18    
Maximum Humidity 27    
Minimum Humidity 14    
Precipitation  
Precipitation 0.00 in - - ()
Sea Level Pressure  
Sea Level Pressure 30.29 in    
Wind  
Wind Speed 13 mph (ENE)    
Max Wind Speed 20 mph    
Max Gust Speed 33 mph    
Visibility 10 miles    
Events      
Averages and records for this station are not official NWS values.
T = Trace of Precipitation, MM = Missing Value Source: NWS Daily Summary

Daily Weather History Graph

Daily Weather History Graph

Search for Another Location

Airport or City:

Trip Planner

Search our weather history database for the weather conditions in past years. The results will help you decide how hot, cold, wet, or windy it might be!

Date:

Astronomy

Jan. 06, 2014 Rise Set
Actual Time 7:35 AM MST 5:31 PM MST
Civil Twilight 7:07 AM MST 5:58 PM MST
Nautical Twilight 6:36 AM MST 6:30 PM MST
Astronomical Twilight 6:05 AM MST 7:00 PM MST
Moon 11:08 AM MST (1/6) 11:51 PM MST (1/6)
Length of Visible Light 10h 51m
Length of Day
9h 55m
Waxing Crescent, 35% of the Moon is Illuminated
Jan 6
Waxing Crescent
Jan 7
First Quarter
Jan 15
Full
Jan 23
Last Quarter
Jan 30
New

Hourly Weather History & Observations

Time (MST) Temp. Windchill Dew Point Humidity Pressure Visibility Wind Dir Wind Speed Gust Speed Precip Events Conditions
12:15 AM 37.4 °F 27.8 °F -4.0 °F 17% 30.28 in 10.0 mi ENE 17.3 mph 24.2 mph N/A   Clear
12:35 AM 37.4 °F 27.8 °F -4.0 °F 17% 30.29 in 10.0 mi ENE 17.3 mph 32.2 mph N/A   Clear
12:55 AM 37.4 °F 28.2 °F -4.0 °F 17% 30.29 in 10.0 mi ENE 16.1 mph 33.4 mph N/A   Clear
1:15 AM 37.4 °F 28.9 °F -4.0 °F 17% 30.30 in 10.0 mi ENE 13.8 mph 25.3 mph N/A   Clear
1:35 AM 35.6 °F 27.1 °F -2.2 °F 20% 30.30 in 10.0 mi East 12.7 mph 18.4 mph N/A   Clear
1:55 AM 35.6 °F 26.2 °F -2.2 °F 20% 30.30 in 10.0 mi ENE 15.0 mph 20.7 mph N/A   Clear
2:15 AM 35.6 °F 28.0 °F -2.2 °F 20% 30.31 in 10.0 mi East 10.4 mph - N/A   Clear
2:35 AM 35.6 °F 27.1 °F -0.4 °F 22% 30.31 in 10.0 mi ENE 12.7 mph 17.3 mph N/A   Clear
2:55 AM 35.6 °F 27.1 °F -0.4 °F 22% 30.32 in 10.0 mi East 12.7 mph 19.6 mph N/A   Clear
3:15 AM 33.8 °F 24.3 °F -0.4 °F 23% 30.32 in 10.0 mi ENE 13.8 mph 20.7 mph N/A   Clear
3:35 AM 33.8 °F 23.5 °F -0.4 °F 23% 30.32 in 10.0 mi ENE 16.1 mph 24.2 mph N/A   Clear
3:55 AM 33.8 °F 24.8 °F -2.2 °F 22% 30.32 in 10.0 mi East 12.7 mph 23.0 mph N/A   Clear
4:15 AM 33.8 °F 24.3 °F -2.2 °F 22% 30.33 in 10.0 mi ENE 13.8 mph 25.3 mph N/A   Clear
4:35 AM 33.8 °F 23.2 °F -0.4 °F 23% 30.32 in 10.0 mi ENE 17.3 mph 23.0 mph N/A   Clear
4:55 AM 33.8 °F 22.8 °F -2.2 °F 22% 30.32 in 10.0 mi NE 18.4 mph 26.5 mph N/A   Clear
5:15 AM 33.8 °F 25.3 °F -2.2 °F 22% 30.32 in 10.0 mi ENE 11.5 mph 21.9 mph N/A   Clear
5:35 AM 33.8 °F 23.2 °F -2.2 °F 22% 30.32 in 10.0 mi ENE 17.3 mph 24.2 mph N/A   Clear
5:55 AM 33.8 °F 23.5 °F -2.2 °F 22% 30.32 in 10.0 mi ENE 16.1 mph 23.0 mph N/A   Clear
6:15 AM 33.8 °F 22.5 °F -2.2 °F 22% 30.32 in 10.0 mi ENE 19.6 mph 26.5 mph N/A   Clear
6:35 AM 33.8 °F 22.5 °F -4.0 °F 20% 30.33 in 10.0 mi NE 19.6 mph 26.5 mph N/A   Clear
6:55 AM 33.8 °F 22.8 °F -4.0 °F 20% 30.34 in 10.0 mi NE 18.4 mph 25.3 mph N/A   Clear
7:15 AM 35.6 °F 25.5 °F -4.0 °F 18% 30.34 in 10.0 mi NE 17.3 mph 21.9 mph N/A   Clear
7:35 AM 35.6 °F 26.2 °F -4.0 °F 18% 30.34 in 10.0 mi NE 15.0 mph 24.2 mph N/A   Clear
7:55 AM 35.6 °F 27.1 °F -4.0 °F 18% 30.34 in 10.0 mi ENE 12.7 mph 21.9 mph N/A   Clear
8:15 AM 35.6 °F 25.5 °F -4.0 °F 18% 30.35 in 10.0 mi NE 17.3 mph 25.3 mph N/A   Clear
8:35 AM 37.4 °F 28.2 °F -4.0 °F 17% 30.35 in 10.0 mi ENE 16.1 mph 24.2 mph N/A   Clear
8:55 AM 39.2 °F 32.0 °F -4.0 °F 16% 30.36 in 10.0 mi ENE 11.5 mph 18.4 mph N/A   Clear
9:15 AM 41.0 °F 33.9 °F -4.0 °F 15% 30.36 in 10.0 mi NE 12.7 mph 20.7 mph N/A   Clear
9:35 AM 42.8 °F 35.8 °F -0.4 °F 16% 30.36 in 10.0 mi East 13.8 mph 19.6 mph N/A   Clear
9:55 AM 44.6 °F 38.4 °F -0.4 °F 15% 30.36 in 10.0 mi East 12.7 mph 18.4 mph N/A   Clear
10:15 AM 46.4 °F 41.5 °F -0.4 °F 14% 30.35 in 10.0 mi ESE 10.4 mph 19.6 mph N/A   Clear
10:35 AM 48.2 °F - 1.4 °F 15% 30.35 in 10.0 mi East 10.4 mph 20.7 mph N/A   Clear
10:55 AM 50.0 °F - 1.4 °F 14% 30.35 in 10.0 mi NE 6.9 mph 19.6 mph N/A   Clear
11:15 AM 51.8 °F - 3.2 °F 14% 30.34 in 10.0 mi ENE 6.9 mph - N/A   Clear
11:35 AM 51.8 °F - 3.2 °F 14% 30.33 in 10.0 mi Calm Calm - N/A   Clear
11:55 AM 53.6 °F - 5.0 °F 14% 30.32 in 10.0 mi SSE 3.5 mph - N/A   Clear
12:15 PM 51.8 °F - 5.0 °F 15% 30.30 in 10.0 mi WSW 5.8 mph - N/A   Clear
12:35 PM 53.6 °F - 5.0 °F 14% 30.30 in 10.0 mi South 4.6 mph - N/A   Clear
12:55 PM 53.6 °F - 6.8 °F 15% 30.28 in 10.0 mi SW 4.6 mph - N/A   Clear
1:15 PM 55.4 °F - 6.8 °F 14% 30.27 in 10.0 mi South 5.8 mph - N/A   Clear
1:35 PM 55.4 °F - 8.6 °F 15% 30.26 in 10.0 mi South 5.8 mph - N/A   Clear
1:55 PM 55.4 °F - 6.8 °F 14% 30.26 in 10.0 mi South 4.6 mph - N/A   Clear
2:15 PM 59.0 °F - 8.6 °F 14% 30.26 in 10.0 mi South 3.5 mph - N/A   Clear
2:35 PM 59.0 °F - 10.4 °F 15% 30.25 in 10.0 mi SE 4.6 mph - N/A   Clear
2:55 PM 59.0 °F - 10.4 °F 15% 30.25 in 10.0 mi East 13.8 mph 17.3 mph N/A   Clear
3:15 PM 57.2 °F - 8.6 °F 14% 30.25 in 10.0 mi East 12.7 mph 18.4 mph N/A   Clear
3:35 PM 55.4 °F - 8.6 °F 15% 30.25 in 10.0 mi East 12.7 mph 18.4 mph N/A   Clear
3:55 PM 55.4 °F - 8.6 °F 15% 30.25 in 10.0 mi East 12.7 mph 18.4 mph N/A   Clear
4:15 PM 55.4 °F - 8.6 °F 15% 30.25 in 10.0 mi East 12.7 mph 18.4 mph N/A   Clear
4:35 PM 53.6 °F - 8.6 °F 16% 30.25 in 10.0 mi East 13.8 mph 19.6 mph N/A   Clear
4:55 PM 51.8 °F - 6.8 °F 16% 30.25 in 10.0 mi East 15.0 mph 25.3 mph N/A   Clear
5:15 PM 50.0 °F - 5.0 °F 16% 30.25 in 10.0 mi East 16.1 mph 20.7 mph N/A   Clear
5:35 PM 50.0 °F - 5.0 °F 16% 30.25 in 10.0 mi East 15.0 mph 20.7 mph N/A   Clear
5:55 PM 46.4 °F 40.7 °F 3.2 °F 17% 30.26 in 10.0 mi East 12.7 mph 19.6 mph N/A   Clear
6:15 PM 46.4 °F 40.4 °F 3.2 °F 17% 30.26 in 10.0 mi East 13.8 mph 18.4 mph N/A   Clear
6:35 PM 46.4 °F 40.1 °F 5.0 °F 18% 30.26 in 10.0 mi ENE 15.0 mph 20.7 mph N/A   Clear
6:55 PM 46.4 °F 39.8 °F 3.2 °F 17% 30.26 in 10.0 mi NE 16.1 mph 23.0 mph N/A   Clear
7:15 PM 46.4 °F 40.1 °F 3.2 °F 17% 30.26 in 10.0 mi ENE 15.0 mph 26.5 mph N/A   Clear
7:35 PM 46.4 °F 40.7 °F 3.2 °F 17% 30.26 in 10.0 mi ENE 12.7 mph 23.0 mph N/A   Clear
7:55 PM 44.6 °F 38.4 °F 3.2 °F 18% 30.27 in 10.0 mi ENE 12.7 mph 19.6 mph N/A   Clear
8:15 PM 44.6 °F 39.7 °F 5.0 °F 20% 30.27 in 10.0 mi ENE 9.2 mph - N/A   Clear
8:35 PM 44.6 °F 38.1 °F 5.0 °F 20% 30.27 in 10.0 mi ENE 13.8 mph 23.0 mph N/A   Clear
8:55 PM 44.6 °F 38.8 °F 5.0 °F 20% 30.27 in 10.0 mi East 11.5 mph - N/A   Clear
9:15 PM 44.6 °F 39.7 °F 6.8 °F 21% 30.26 in 10.0 mi ENE 9.2 mph 16.1 mph N/A   Clear
9:35 PM 44.6 °F 38.8 °F 8.6 °F 23% 30.26 in 10.0 mi ENE 11.5 mph 17.3 mph N/A   Clear
9:55 PM 42.8 °F 38.0 °F 8.6 °F 25% 30.26 in 10.0 mi East 8.1 mph - N/A   Clear
10:15 PM 42.8 °F 38.0 °F 8.6 °F 25% 30.26 in 10.0 mi East 8.1 mph - N/A   Clear
10:35 PM 42.8 °F 37.5 °F 8.6 °F 25% 30.26 in 10.0 mi ENE 9.2 mph - N/A   Clear
10:55 PM 44.6 °F 40.7 °F 8.6 °F 23% 30.25 in 10.0 mi East 6.9 mph 16.1 mph N/A   Clear
11:15 PM 42.8 °F 37.5 °F 10.4 °F 27% 30.25 in 10.0 mi East 9.2 mph - N/A   Clear
11:35 PM 42.8 °F 38.6 °F 10.4 °F 27% 30.25 in 10.0 mi ENE 6.9 mph - N/A   Clear
11:55 PM 42.8 °F 38.6 °F 8.6 °F 25% 30.25 in 10.0 mi ENE 6.9 mph - N/A   Clear